Time;durP1;ratioP1;P1;durP2;ratioP2;P2;SDS_P1;SDS_P2;PMS_P1;PMS_P2;Temp;Humidity;BMP_temperature;BMP_pressure;BME280_temperature;BME280_humidity;BME280_pressure;Samples;Min_cycle;Max_cycle;Signal;HPM_P1;HPM_P2
2023/05/10 00:04:11;;;;;;;22.58;20.10;;;22.60;55.70;;;;;;4715912;55;21098;-34
2023/05/10 00:09:12;;;;;;;21.65;18.67;;;22.60;55.70;;;;;;4724311;55;21388;-32
2023/05/10 00:14:13;;;;;;;24.17;19.67;;;22.60;55.70;;;;;;4714935;59;21433;-34
2023/05/10 00:19:14;;;;;;;21.12;18.50;;;22.60;55.80;;;;;;4716087;59;21712;-36
2023/05/10 00:24:14;;;;;;;23.02;20.52;;;22.60;55.80;;;;;;4715904;55;21059;-35
2023/05/10 00:29:15;;;;;;;21.70;19.23;;;22.60;55.80;;;;;;4773142;55;21019;-34
2023/05/10 00:34:16;;;;;;;21.60;18.50;;;22.60;55.90;;;;;;4715311;59;21179;-36
2023/05/10 00:39:17;;;;;;;21.95;18.27;;;22.60;56.60;;;;;;4786493;55;21074;-36
2023/05/10 00:44:18;;;;;;;20.25;18.00;;;22.60;55.90;;;;;;4748826;55;20999;-34
2023/05/10 00:49:20;;;;;;;21.73;18.10;;;22.60;55.90;;;;;;4816824;55;21488;-33
2023/05/10 00:54:21;;;;;;;20.90;18.00;;;22.60;55.90;;;;;;4751104;55;21553;-33
2023/05/10 00:59:24;;;;;;;21.70;18.55;;;22.60;56.00;;;;;;4773435;55;21011;-36
2023/05/10 01:04:28;;;;;;;19.35;17.23;;;22.60;55.90;;;;;;4725718;55;21622;-32
2023/05/10 01:09:29;;;;;;;19.85;17.33;;;22.60;56.00;;;;;;4848430;55;21530;-33
2023/05/10 01:14:30;;;;;;;19.00;16.65;;;22.60;56.00;;;;;;4715666;55;21329;-35
2023/05/10 01:19:34;;;;;;;19.48;17.20;;;22.60;56.00;;;;;;4716277;59;21570;-35
2023/05/10 01:26:06;;;;;;;19.48;17.37;;;22.60;56.00;;;;;;4715029;59;21604;-35
2023/05/10 01:32:36;;;;;;;18.08;16.20;;;22.60;56.10;;;;;;4715821;55;21545;-35
2023/05/10 01:38:15;;;;;;;19.00;16.90;;;22.60;56.10;;;;;;4813826;55;21155;-36
2023/05/10 01:43:33;;;;;;;20.55;17.37;;;22.60;56.10;;;;;;4768828;55;21004;-35
2023/05/10 01:48:34;;;;;;;18.85;16.85;;;22.60;56.10;;;;;;4784794;55;21482;-34
2023/05/10 01:53:38;;;;;;;17.85;15.95;;;22.60;56.10;;;;;;4750733;55;21031;-34
2023/05/10 01:58:44;;;;;;;17.55;15.70;;;22.60;56.70;;;;;;4750709;55;21078;-35
2023/05/10 02:03:50;;;;;;;18.12;15.57;;;22.60;56.80;;;;;;4722648;55;21489;-30
2023/05/10 02:08:53;;;;;;;17.98;16.08;;;22.60;56.10;;;;;;4785575;55;21474;-35
2023/05/10 02:13:56;;;;;;;17.62;15.77;;;22.60;56.20;;;;;;4743198;55;21092;-35
2023/05/10 02:18:59;;;;;;;17.00;15.20;;;22.60;56.20;;;;;;4777571;55;21020;-34
2023/05/10 02:24:02;;;;;;;16.92;15.07;;;22.60;56.20;;;;;;4826334;55;21681;-32
2023/05/10 02:29:05;;;;;;;17.45;15.48;;;22.60;56.20;;;;;;4775990;55;21004;-35
2023/05/10 02:34:07;;;;;;;17.40;15.52;;;22.60;56.20;;;;;;4734217;55;21055;-35
2023/05/10 02:39:12;;;;;;;18.08;15.23;;;22.60;56.30;;;;;;4793893;55;21032;-35
2023/05/10 02:44:15;;;;;;;17.05;14.90;;;22.60;56.20;;;;;;4749228;55;21580;-31
2023/05/10 02:49:16;;;;;;;17.55;15.20;;;22.60;56.30;;;;;;4764758;55;21489;-34
2023/05/10 02:54:27;;;;;;;16.00;14.30;;;22.60;56.30;;;;;;4752301;55;21080;-32
2023/05/10 02:59:28;;;;;;;16.37;14.57;;;22.60;56.30;;;;;;4715922;59;21509;-31
2023/05/10 03:04:29;;;;;;;16.55;14.73;;;22.60;56.20;;;;;;4851459;55;21079;-31
2023/05/10 03:09:31;;;;;;;16.23;14.52;;;22.60;56.30;;;;;;4789075;55;21102;-35
2023/05/10 03:14:53;;;;;;;15.85;14.20;;;22.50;56.30;;;;;;4716075;55;21051;-35
2023/05/10 03:20:03;;;;;;;15.82;14.18;;;22.50;56.30;;;;;;4766101;55;21465;-35
2023/05/10 03:25:08;;;;;;;15.50;13.82;;;22.60;56.30;;;;;;4738459;55;21118;-34
2023/05/10 03:30:11;;;;;;;15.02;13.40;;;22.60;56.30;;;;;;4728614;55;21035;-34
2023/05/10 03:35:14;;;;;;;16.15;13.18;;;22.60;56.30;;;;;;4819970;55;21008;-35
2023/05/10 03:40:15;;;;;;;15.93;13.32;;;22.50;56.30;;;;;;4752514;55;21549;-36
2023/05/10 03:45:16;;;;;;;15.68;14.07;;;22.50;56.40;;;;;;4715882;59;21493;-35
2023/05/10 03:50:18;;;;;;;14.70;13.07;;;22.60;56.40;;;;;;4810272;55;21008;-35
2023/05/10 03:55:18;;;;;;;14.32;12.82;;;22.60;56.40;;;;;;4716024;55;21031;-33
2023/05/10 04:00:20;;;;;;;15.15;13.55;;;22.50;56.30;;;;;;4780410;55;21585;-36
2023/05/10 04:05:21;;;;;;;14.10;12.60;;;22.60;56.50;;;;;;4736517;55;21927;-35
2023/05/10 04:10:21;;;;;;;15.02;13.10;;;22.50;56.50;;;;;;4715614;55;21071;-35
2023/05/10 04:15:22;;;;;;;13.43;12.02;;;22.60;56.70;;;;;;4745485;55;21577;-34
2023/05/10 04:20:23;;;;;;;13.27;11.90;;;22.60;56.80;;;;;;4716035;59;21055;-35
2023/05/10 04:25:24;;;;;;;14.23;12.65;;;22.50;56.70;;;;;;4723296;55;21040;-28
2023/05/10 04:30:25;;;;;;;13.23;11.75;;;22.50;56.70;;;;;;4719840;55;21066;-34
2023/05/10 04:35:26;;;;;;;13.48;12.13;;;22.50;56.80;;;;;;4760667;55;21139;-34
2023/05/10 04:40:27;;;;;;;13.25;11.95;;;22.50;56.70;;;;;;4727994;55;21506;-35
2023/05/10 04:45:28;;;;;;;13.02;11.65;;;22.50;56.80;;;;;;4715879;59;21203;-35
2023/05/10 04:50:29;;;;;;;13.02;11.73;;;22.50;56.80;;;;;;4719968;55;21024;-33
2023/05/10 04:55:30;;;;;;;13.62;11.38;;;22.50;56.90;;;;;;4814324;55;21067;-32
2023/05/10 05:00:33;;;;;;;12.77;11.48;;;22.50;56.80;;;;;;4752641;55;21091;-34
2023/05/10 05:05:34;;;;;;;12.77;11.40;;;22.50;56.80;;;;;;4808933;55;21019;-36
2023/05/10 05:10:35;;;;;;;12.98;11.55;;;22.50;56.80;;;;;;4746538;55;21510;-35
2023/05/10 05:15:36;;;;;;;12.35;11.05;;;22.50;56.80;;;;;;4715810;59;21066;-34
2023/05/10 05:20:40;;;;;;;11.73;10.52;;;22.50;56.80;;;;;;4736835;55;20995;-34
2023/05/10 05:25:41;;;;;;;12.00;10.77;;;22.50;56.80;;;;;;4734088;55;21723;-32
2023/05/10 05:30:42;;;;;;;12.43;11.05;;;22.50;56.90;;;;;;4722675;55;21490;-36
2023/05/10 05:35:47;;;;;;;13.27;11.70;;;22.50;56.80;;;;;;4723775;55;21086;-32
2023/05/10 05:40:48;;;;;;;12.68;11.38;;;22.50;56.80;;;;;;4719428;55;21435;-36
2023/05/10 05:45:49;;;;;;;11.98;10.65;;;22.50;56.90;;;;;;4739679;55;21012;-34
2023/05/10 05:50:50;;;;;;;12.25;10.95;;;22.50;56.90;;;;;;4724988;55;21513;-35
2023/05/10 05:55:56;;;;;;;13.90;11.73;;;22.50;56.90;;;;;;4785861;55;21348;-35
2023/05/10 06:00:57;;;;;;;12.00;10.70;;;22.50;56.90;;;;;;4717502;55;21023;-35
2023/05/10 06:05:58;;;;;;;12.52;11.23;;;22.50;56.90;;;;;;4742350;55;21015;-30
2023/05/10 06:10:58;;;;;;;13.13;10.95;;;22.50;56.90;;;;;;4803421;55;21008;-36
2023/05/10 06:16:00;;;;;;;13.25;11.25;;;22.50;57.10;;;;;;4726695;55;21024;-32
2023/05/10 06:21:01;;;;;;;12.90;11.43;;;22.50;56.90;;;;;;4767009;55;21091;-36
2023/05/10 06:26:01;;;;;;;12.85;11.52;;;22.50;56.90;;;;;;4734187;55;21027;-31
2023/05/10 06:31:02;;;;;;;14.15;12.15;;;22.50;56.90;;;;;;4820229;55;21087;-33
2023/05/10 06:36:04;;;;;;;13.25;11.98;;;22.50;56.90;;;;;;4724231;55;21636;-35
2023/05/10 06:41:05;;;;;;;13.07;11.75;;;22.50;56.80;;;;;;4745300;55;21145;-36
2023/05/10 06:46:06;;;;;;;14.48;12.35;;;22.50;56.80;;;;;;4724339;55;21549;-33
2023/05/10 06:51:07;;;;;;;13.20;11.80;;;22.50;56.70;;;;;;4740157;55;21565;-35
2023/05/10 06:56:08;;;;;;;15.18;12.48;;;22.50;56.70;;;;;;4717006;55;21027;-30
2023/05/10 07:01:09;;;;;;;13.85;12.15;;;22.50;56.70;;;;;;4737750;55;21007;-33
2023/05/10 07:06:10;;;;;;;13.85;12.45;;;22.50;56.60;;;;;;4717868;55;21039;-31
2023/05/10 07:11:11;;;;;;;14.85;13.00;;;22.50;56.70;;;;;;4721616;55;21558;-34
2023/05/10 07:16:12;;;;;;;13.02;11.60;;;22.50;56.60;;;;;;4751705;55;21031;-34
2023/05/10 07:21:12;;;;;;;13.40;12.05;;;22.50;56.50;;;;;;4722604;55;21111;-32
2023/05/10 07:26:14;;;;;;;14.13;12.70;;;22.50;56.50;;;;;;4714166;55;21328;-35
2023/05/10 07:31:15;;;;;;;13.93;12.43;;;22.50;56.40;;;;;;4732899;55;21517;-33
2023/05/10 07:36:16;;;;;;;14.38;12.65;;;22.50;56.40;;;;;;4721419;55;21075;-35
2023/05/10 07:41:17;;;;;;;15.20;12.30;;;22.50;56.40;;;;;;4729822;55;21481;-36
2023/05/10 07:46:19;;;;;;;14.30;12.50;;;22.50;56.30;;;;;;4724196;55;21065;-35
2023/05/10 07:51:20;;;;;;;13.68;11.63;;;22.50;56.30;;;;;;4722866;55;21482;-35
2023/05/10 07:56:31;;;;;;;14.68;12.32;;;22.50;56.30;;;;;;4747227;55;21474;-34
2023/05/10 08:01:33;;;;;;;13.62;11.75;;;22.50;56.30;;;;;;4858533;55;21483;-36
2023/05/10 08:06:34;;;;;;;14.55;11.77;;;22.50;56.20;;;;;;4740012;55;21082;-35
2023/05/10 08:11:35;;;;;;;14.57;12.15;;;22.50;56.20;;;;;;4806438;55;21091;-33
2023/05/10 08:16:36;;;;;;;14.18;11.45;;;22.50;56.20;;;;;;4746930;55;21111;-35
2023/05/10 08:21:37;;;;;;;14.75;12.55;;;22.50;56.20;;;;;;4715470;56;21549;-34
2023/05/10 08:26:38;;;;;;;14.40;12.37;;;22.50;56.20;;;;;;4718585;55;21031;-35
2023/05/10 08:31:39;;;;;;;13.62;12.20;;;22.50;56.20;;;;;;4735088;55;21341;-38
2023/05/10 08:36:40;;;;;;;14.50;12.63;;;22.50;56.30;;;;;;4768018;55;21925;-33
2023/05/10 08:41:44;;;;;;;14.55;12.63;;;22.50;56.20;;;;;;4721866;55;21642;-34
2023/05/10 08:46:46;;;;;;;16.30;12.77;;;22.50;56.20;;;;;;4777808;55;21545;-36
2023/05/10 08:51:56;;;;;;;14.10;12.65;;;22.50;56.10;;;;;;4800946;55;21165;-35
2023/05/10 08:56:57;;;;;;;16.35;13.45;;;22.60;56.20;;;;;;4805824;55;21015;-34
2023/05/10 09:01:59;;;;;;;15.88;13.43;;;22.60;56.30;;;;;;4862782;55;21543;-34
2023/05/10 09:07:01;;;;;;;15.50;12.98;;;22.50;56.80;;;;;;4716001;55;21558;-34
2023/05/10 09:12:02;;;;;;;16.90;14.57;;;22.50;56.10;;;;;;4715128;59;21510;-34
2023/05/10 09:17:02;;;;;;;15.75;13.70;;;22.50;56.10;;;;;;4740849;55;21035;-32
2023/05/10 09:22:03;;;;;;;16.77;13.80;;;22.60;56.20;;;;;;4717181;55;21051;-34
2023/05/10 09:27:05;;;;;;;19.12;14.10;;;22.60;56.20;;;;;;4728361;55;21553;-34
2023/05/10 09:32:06;;;;;;;16.87;14.20;;;22.60;56.10;;;;;;4715515;59;21586;-34
2023/05/10 09:37:07;;;;;;;19.08;14.38;;;22.60;56.10;;;;;;4775786;55;21054;-34
2023/05/10 09:42:10;;;;;;;16.67;13.75;;;22.60;56.10;;;;;;4734097;55;21494;-34
2023/05/10 09:47:20;;;;;;;19.83;14.40;;;22.60;56.10;;;;;;4770004;55;21017;-33
2023/05/10 09:52:21;;;;;;;21.95;14.63;;;22.60;56.10;;;;;;4713526;59;21051;-33
2023/05/10 09:57:23;;;;;;;20.95;14.45;;;22.60;56.30;;;;;;4717792;55;21078;-32
2023/05/10 10:02:29;;;;;;;18.48;14.40;;;22.60;56.70;;;;;;4714768;55;21055;-33
2023/05/10 10:07:30;;;;;;;20.12;15.07;;;22.70;56.70;;;;;;4716088;55;21498;-33
2023/05/10 10:12:31;;;;;;;20.48;14.52;;;22.80;56.90;;;;;;4712707;59;21059;-33
2023/05/10 10:17:35;;;;;;;20.02;14.40;;;22.80;57.00;;;;;;4733507;55;21490;-34
2023/05/10 10:22:37;;;;;;;19.62;14.18;;;22.90;57.10;;;;;;4739168;55;21063;-33
2023/05/10 10:28:08;;;;;;;19.70;15.05;;;22.90;57.20;;;;;;4712845;55;21537;-36
2023/05/10 10:33:36;;;;;;;19.73;15.35;;;22.90;57.30;;;;;;4710771;59;21558;-30
2023/05/10 10:39:38;;;;;;;20.23;14.07;;;23.00;57.30;;;;;;4720769;55;21019;-34
2023/05/10 10:44:41;;;;;;;17.02;13.90;;;23.00;57.60;;;;;;4713834;56;21080;-35
2023/05/10 10:51:36;;;;;;;17.92;14.50;;;23.00;57.60;;;;;;4711967;59;21562;-31
2023/05/10 10:56:36;;;;;;;17.20;13.98;;;23.00;57.60;;;;;;4719018;55;21087;-31
2023/05/10 11:01:44;;;;;;;19.73;14.77;;;23.10;57.80;;;;;;4727441;55;22152;-30
2023/05/10 11:06:45;;;;;;;18.12;14.68;;;23.10;57.60;;;;;;4720677;55;21016;-34
2023/05/10 11:11:54;;;;;;;16.30;14.13;;;23.10;57.60;;;;;;4733152;55;21891;-33
2023/05/10 11:16:55;;;;;;;19.77;14.98;;;23.00;57.50;;;;;;4741029;55;21064;-37
2023/05/10 11:22:56;;;;;;;17.90;14.40;;;23.00;57.50;;;;;;4711781;59;21032;-36
2023/05/10 11:27:57;;;;;;;16.70;14.20;;;23.00;57.50;;;;;;4722337;55;21095;-32
2023/05/10 11:32:58;;;;;;;16.90;14.27;;;23.00;57.50;;;;;;4719867;55;21075;-33
2023/05/10 11:37:59;;;;;;;19.65;14.75;;;23.00;57.60;;;;;;4733153;55;21023;-35
2023/05/10 11:43:00;;;;;;;17.80;15.05;;;23.00;57.60;;;;;;4714620;59;21489;-32
2023/05/10 11:48:01;;;;;;;17.67;15.23;;;23.00;57.60;;;;;;4723090;55;21016;-34
2023/05/10 11:53:03;;;;;;;18.25;15.13;;;23.00;57.60;;;;;;4724634;55;21036;-37
2023/05/10 11:58:04;;;;;;;19.35;14.65;;;23.00;57.60;;;;;;4725370;55;21609;-36
2023/05/10 12:03:06;;;;;;;19.85;15.23;;;23.00;57.60;;;;;;4720063;55;21561;-31
2023/05/10 12:08:21;;;;;;;21.48;14.73;;;23.00;57.60;;;;;;4755192;55;21081;-32
2023/05/10 12:13:22;;;;;;;18.75;14.95;;;23.00;57.80;;;;;;4731333;55;21545;-34
2023/05/10 12:18:24;;;;;;;18.02;14.63;;;23.00;57.90;;;;;;4722520;55;21030;-30
2023/05/10 12:23:26;;;;;;;17.77;14.73;;;23.10;58.10;;;;;;4712440;59;21626;-34
2023/05/10 12:28:30;;;;;;;16.85;14.32;;;23.10;58.70;;;;;;4720687;55;21557;-32
2023/05/10 12:33:45;;;;;;;17.40;14.60;;;23.10;58.10;;;;;;4724790;55;21055;-34
2023/05/10 12:38:48;;;;;;;21.23;14.57;;;23.20;58.20;;;;;;4738422;55;21580;-32
2023/05/10 12:43:49;;;;;;;18.42;15.15;;;23.20;58.40;;;;;;4715601;55;21016;-34
2023/05/10 12:48:54;;;;;;;18.30;13.55;;;23.20;58.50;;;;;;4720383;55;21034;-31
2023/05/10 12:53:55;;;;;;;18.83;14.87;;;23.20;58.50;;;;;;4726840;55;21787;-32
2023/05/10 12:58:56;;;;;;;19.37;14.48;;;23.20;58.60;;;;;;4736782;55;21051;-33
2023/05/10 13:03:57;;;;;;;19.80;14.65;;;23.20;58.60;;;;;;4735186;55;21007;-31
2023/05/10 13:08:59;;;;;;;17.25;14.07;;;23.20;58.80;;;;;;4717727;55;21025;-29
2023/05/10 13:14:00;;;;;;;19.25;15.15;;;23.20;58.70;;;;;;4729936;55;21601;-30
2023/05/10 13:19:01;;;;;;;20.83;14.73;;;23.30;58.90;;;;;;4723683;55;21493;-33
2023/05/10 13:24:02;;;;;;;19.30;15.05;;;23.30;58.90;;;;;;4759520;55;21047;-30
2023/05/10 13:29:03;;;;;;;19.70;15.90;;;23.30;59.00;;;;;;4722554;55;21035;-31
2023/05/10 13:34:06;;;;;;;19.92;14.80;;;23.30;59.00;;;;;;4752501;55;21517;-31
2023/05/10 13:39:06;;;;;;;17.37;14.43;;;23.30;59.00;;;;;;4716856;55;22180;-33
2023/05/10 13:44:07;;;;;;;20.05;15.45;;;23.30;59.10;;;;;;4713832;59;21010;-32
2023/05/10 13:49:11;;;;;;;18.27;14.63;;;23.30;59.10;;;;;;4712800;59;21589;-33
2023/05/10 13:54:12;;;;;;;20.25;15.35;;;23.30;59.20;;;;;;4729038;55;21035;-33
2023/05/10 13:59:13;;;;;;;21.77;15.70;;;23.30;59.40;;;;;;4754215;55;21553;-31
2023/05/10 14:04:14;;;;;;;20.08;16.00;;;23.30;59.40;;;;;;4740760;55;21554;-36
2023/05/10 14:09:18;;;;;;;21.27;14.48;;;23.30;59.50;;;;;;4715785;55;21336;-36
2023/05/10 14:14:19;;;;;;;19.12;15.52;;;23.30;59.40;;;;;;4834783;55;21565;-34
2023/05/10 14:19:20;;;;;;;19.17;15.30;;;23.20;59.40;;;;;;4753804;55;21671;-31
2023/05/10 14:24:21;;;;;;;16.92;14.18;;;23.10;59.40;;;;;;4714642;59;21107;-31
2023/05/10 14:29:22;;;;;;;17.60;14.65;;;23.10;59.50;;;;;;4715286;55;21016;-37
2023/05/10 14:34:23;;;;;;;20.48;16.05;;;23.10;59.50;;;;;;4727384;55;21633;-36
2023/05/10 14:39:24;;;;;;;19.30;15.10;;;23.10;59.50;;;;;;4761977;55;21035;-35
2023/05/10 14:44:24;;;;;;;18.75;14.05;;;23.00;59.50;;;;;;4770793;55;21039;-33
2023/05/10 14:49:25;;;;;;;17.85;14.50;;;23.00;59.60;;;;;;4729560;55;21007;-31
2023/05/10 14:54:27;;;;;;;18.90;14.15;;;23.00;59.40;;;;;;4714892;59;21573;-31
2023/05/10 14:59:28;;;;;;;17.90;14.25;;;23.00;59.40;;;;;;4804157;55;21552;-35
2023/05/10 15:04:32;;;;;;;18.25;14.45;;;23.00;59.50;;;;;;4725717;55;21010;-32
2023/05/10 15:09:32;;;;;;;16.67;13.77;;;23.00;59.50;;;;;;4778320;55;21010;-36
2023/05/10 15:14:35;;;;;;;16.73;14.43;;;23.00;59.50;;;;;;4801596;55;21574;-34
2023/05/10 15:19:36;;;;;;;16.75;13.95;;;23.00;59.60;;;;;;4724386;55;21600;-32
2023/05/10 15:24:37;;;;;;;17.90;14.75;;;22.90;59.40;;;;;;4820266;55;21115;-33
2023/05/10 15:29:38;;;;;;;18.48;14.55;;;23.00;59.40;;;;;;4822166;55;21019;-32
2023/05/10 15:34:39;;;;;;;17.30;14.00;;;22.90;59.50;;;;;;4740066;55;21900;-32
2023/05/10 15:39:40;;;;;;;16.95;14.90;;;22.90;59.50;;;;;;4750551;55;21582;-37
2023/05/10 15:44:41;;;;;;;18.00;13.90;;;22.90;59.50;;;;;;4735347;55;21023;-36
2023/05/10 15:49:42;;;;;;;16.77;13.77;;;22.90;59.50;;;;;;4828076;55;21050;-36
2023/05/10 15:54:42;;;;;;;17.35;14.48;;;22.90;59.40;;;;;;4737753;55;21031;-36
2023/05/10 15:59:44;;;;;;;17.50;14.43;;;22.90;59.40;;;;;;4723307;55;21488;-36
2023/05/10 16:04:45;;;;;;;17.05;14.85;;;22.90;59.40;;;;;;4857207;55;21580;-35
2023/05/10 16:09:45;;;;;;;16.70;13.20;;;22.90;59.40;;;;;;4786608;55;21102;-36
2023/05/10 16:14:47;;;;;;;17.30;13.45;;;22.90;59.40;;;;;;4774931;55;21522;-33
2023/05/10 16:19:48;;;;;;;15.43;13.73;;;22.90;59.40;;;;;;4802328;55;21015;-36
2023/05/10 16:24:52;;;;;;;17.60;13.93;;;22.90;59.40;;;;;;4714447;59;21071;-36
2023/05/10 16:29:54;;;;;;;16.55;14.18;;;22.90;59.40;;;;;;4750777;55;21799;-35
2023/05/10 16:34:55;;;;;;;16.75;13.95;;;22.90;59.30;;;;;;4724234;55;21601;-33
2023/05/10 16:39:56;;;;;;;17.77;14.50;;;22.90;59.40;;;;;;4716156;59;21059;-36
2023/05/10 16:44:57;;;;;;;19.12;14.52;;;22.90;59.30;;;;;;4778212;55;21055;-36
2023/05/10 16:49:58;;;;;;;18.20;14.85;;;22.90;59.40;;;;;;4737215;55;21039;-35
2023/05/10 16:54:59;;;;;;;16.73;14.05;;;22.90;59.30;;;;;;4714708;55;21099;-36
2023/05/10 17:00:00;;;;;;;17.65;14.43;;;22.90;59.30;;;;;;4731945;55;21028;-36
2023/05/10 17:05:01;;;;;;;17.52;15.02;;;22.90;59.30;;;;;;4736099;55;21408;-32
2023/05/10 17:10:02;;;;;;;17.58;15.23;;;22.80;59.30;;;;;;4774160;55;21095;-37
2023/05/10 17:15:05;;;;;;;19.58;14.55;;;22.90;59.30;;;;;;4726627;55;21027;-35
2023/05/10 17:20:07;;;;;;;17.02;14.32;;;22.90;59.30;;;;;;4722968;55;21007;-35
2023/05/10 17:25:10;;;;;;;17.55;14.05;;;22.80;59.20;;;;;;4720883;55;21032;-34
2023/05/10 17:30:12;;;;;;;16.92;14.00;;;22.90;59.30;;;;;;4753253;55;21562;-36
2023/05/10 17:35:15;;;;;;;18.92;14.52;;;22.90;59.30;;;;;;4727668;55;21557;-36
2023/05/10 17:40:16;;;;;;;17.65;14.57;;;22.90;59.30;;;;;;4716648;55;21102;-33
2023/05/10 17:45:16;;;;;;;19.23;14.25;;;22.90;59.30;;;;;;4715708;59;21007;-33
2023/05/10 17:50:17;;;;;;;17.65;15.23;;;22.80;59.20;;;;;;4734177;55;21023;-35
2023/05/10 17:55:18;;;;;;;17.20;14.55;;;22.90;59.30;;;;;;4714749;56;21011;-32
2023/05/10 18:00:22;;;;;;;19.73;15.73;;;22.80;59.30;;;;;;4754099;55;21533;-38
2023/05/10 18:05:23;;;;;;;18.17;14.63;;;22.80;59.90;;;;;;4715615;59;21067;-30
2023/05/10 18:10:24;;;;;;;18.70;14.93;;;22.80;59.30;;;;;;4736307;55;21043;-36
2023/05/10 18:15:26;;;;;;;18.17;14.65;;;22.80;59.30;;;;;;4754612;55;21028;-35
2023/05/10 18:20:28;;;;;;;17.20;14.73;;;22.80;59.30;;;;;;4798462;55;21550;-35
2023/05/10 18:25:28;;;;;;;17.00;14.50;;;22.80;59.40;;;;;;4715683;59;21008;-37
2023/05/10 18:30:29;;;;;;;20.33;15.43;;;22.80;59.40;;;;;;4729365;55;21538;-35
2023/05/10 18:35:30;;;;;;;17.83;14.75;;;22.80;59.40;;;;;;4752296;55;21482;-36
2023/05/10 18:40:31;;;;;;;19.27;15.82;;;22.80;59.50;;;;;;4715814;59;21039;-36
2023/05/10 18:45:32;;;;;;;17.87;15.50;;;22.80;59.40;;;;;;4754155;55;21485;-38
2023/05/10 18:50:33;;;;;;;18.27;15.13;;;22.90;59.50;;;;;;4924013;55;21490;-32
2023/05/10 18:55:33;;;;;;;18.33;15.68;;;22.80;59.50;;;;;;4809895;55;21107;-36
2023/05/10 19:00:34;;;;;;;17.52;14.38;;;22.80;60.10;;;;;;4808459;55;21016;-33
2023/05/10 19:05:35;;;;;;;18.42;15.52;;;22.80;59.50;;;;;;4747561;55;20999;-36
2023/05/10 19:10:36;;;;;;;18.45;15.68;;;22.80;59.50;;;;;;4715627;59;21047;-36
2023/05/10 19:15:37;;;;;;;21.30;15.98;;;22.90;59.60;;;;;;4740442;55;21055;-36
2023/05/10 19:20:38;;;;;;;20.23;16.00;;;22.80;60.30;;;;;;4723783;55;21043;-34
2023/05/10 19:25:41;;;;;;;17.30;15.45;;;22.80;59.60;;;;;;4715808;59;21360;-34
2023/05/10 19:30:41;;;;;;;19.77;15.30;;;22.80;59.60;;;;;;4716050;59;21594;-35
2023/05/10 19:35:42;;;;;;;17.70;14.82;;;22.90;59.60;;;;;;4714650;56;21095;-33
2023/05/10 19:40:43;;;;;;;19.40;15.80;;;22.80;59.60;;;;;;4715885;59;21051;-35
2023/05/10 19:45:44;;;;;;;20.85;16.33;;;22.80;59.60;;;;;;4787841;55;21549;-32
2023/05/10 19:50:45;;;;;;;19.10;15.73;;;22.80;59.60;;;;;;4901300;55;20999;-36
2023/05/10 19:55:46;;;;;;;21.17;16.80;;;22.80;59.70;;;;;;4714769;59;21533;-33
2023/05/10 20:00:47;;;;;;;19.98;16.20;;;22.80;59.70;;;;;;4805763;55;21079;-34
2023/05/10 20:05:49;;;;;;;18.50;15.73;;;22.80;59.60;;;;;;4823003;55;21486;-36
2023/05/10 20:10:50;;;;;;;20.48;16.77;;;22.80;59.70;;;;;;4821567;55;21042;-32
2023/05/10 20:15:55;;;;;;;18.17;15.98;;;22.80;59.90;;;;;;4751104;55;21875;-32
2023/05/10 20:20:58;;;;;;;19.65;16.15;;;22.80;59.80;;;;;;4890541;55;21947;-38
2023/05/10 20:25:59;;;;;;;18.95;16.20;;;22.80;59.70;;;;;;4834175;55;21060;-35
2023/05/10 20:31:00;;;;;;;20.37;16.65;;;22.80;59.70;;;;;;4722066;55;21028;-34
2023/05/10 20:36:05;;;;;;;18.92;16.33;;;22.80;59.70;;;;;;4736419;55;21561;-36
2023/05/10 20:41:06;;;;;;;20.90;16.62;;;22.80;59.80;;;;;;4799999;55;21072;-34
2023/05/10 20:46:07;;;;;;;20.33;16.30;;;22.80;59.70;;;;;;4765820;55;21062;-35
2023/05/10 20:51:08;;;;;;;20.58;16.77;;;22.80;59.80;;;;;;4737113;55;21097;-35
2023/05/10 20:56:12;;;;;;;20.75;16.85;;;22.80;59.80;;;;;;4771528;55;21486;-37
2023/05/10 21:01:12;;;;;;;19.83;17.15;;;22.80;59.80;;;;;;4761919;55;21063;-37
2023/05/10 21:06:13;;;;;;;19.73;17.05;;;22.80;59.80;;;;;;4715706;59;20999;-30
2023/05/10 21:11:14;;;;;;;19.95;17.08;;;22.80;59.90;;;;;;4739698;55;21509;-37
2023/05/10 21:16:15;;;;;;;19.67;16.50;;;22.80;59.80;;;;;;4752671;55;21020;-34
2023/05/10 21:21:16;;;;;;;19.05;16.55;;;22.80;59.80;;;;;;4716432;55;21070;-36
2023/05/10 21:26:17;;;;;;;20.67;17.10;;;22.80;59.90;;;;;;4805500;55;21534;-35
2023/05/10 21:31:18;;;;;;;18.83;16.52;;;22.80;59.80;;;;;;4818359;55;21068;-36
2023/05/10 21:36:18;;;;;;;19.92;16.50;;;22.80;59.90;;;;;;4734303;55;21071;-34
2023/05/10 21:41:20;;;;;;;18.80;16.77;;;22.80;59.80;;;;;;4747095;55;21015;-31
2023/05/10 21:46:21;;;;;;;19.83;16.75;;;22.80;59.80;;;;;;4762622;55;21035;-36
2023/05/10 21:51:25;;;;;;;18.60;16.45;;;22.80;59.80;;;;;;4747993;55;21007;-35
2023/05/10 21:56:26;;;;;;;19.35;17.05;;;22.80;59.90;;;;;;4817763;55;21011;-35
2023/05/10 22:01:27;;;;;;;18.55;16.52;;;22.80;59.90;;;;;;4769456;55;21506;-35
2023/05/10 22:06:28;;;;;;;18.50;16.42;;;22.80;59.90;;;;;;4715568;59;21007;-36
2023/05/10 22:11:29;;;;;;;19.12;16.40;;;22.80;59.80;;;;;;4770330;55;21549;-35
2023/05/10 22:16:30;;;;;;;18.10;16.05;;;22.80;59.80;;;;;;4718986;55;21027;-35
2023/05/10 22:21:31;;;;;;;19.15;15.85;;;22.80;59.90;;;;;;4735308;55;21502;-34
2023/05/10 22:26:32;;;;;;;18.50;16.50;;;22.80;59.90;;;;;;4822719;55;21051;-35
2023/05/10 22:31:32;;;;;;;19.08;16.70;;;22.80;59.90;;;;;;4746691;55;21418;-35
2023/05/10 22:36:33;;;;;;;17.90;16.00;;;22.80;59.90;;;;;;4798538;55;21051;-34
2023/05/10 22:41:34;;;;;;;20.65;16.83;;;22.80;59.80;;;;;;4715372;59;21020;-35
2023/05/10 22:46:36;;;;;;;19.25;16.52;;;22.80;59.90;;;;;;4721363;55;21063;-33
2023/05/10 22:51:37;;;;;;;18.42;16.40;;;22.80;59.90;;;;;;4738010;55;21489;-32
2023/05/10 22:56:37;;;;;;;17.73;15.82;;;22.70;59.80;;;;;;4764050;55;21023;-31
2023/05/10 23:01:38;;;;;;;20.23;15.27;;;22.70;59.80;;;;;;4735844;55;21080;-34
2023/05/10 23:06:39;;;;;;;17.77;15.77;;;22.80;59.90;;;;;;4752745;55;21055;-34
2023/05/10 23:11:40;;;;;;;19.12;14.87;;;22.70;59.90;;;;;;4733384;55;21020;-35
2023/05/10 23:16:41;;;;;;;17.33;15.45;;;22.80;59.90;;;;;;4786195;55;21553;-36
2023/05/10 23:21:42;;;;;;;18.50;15.77;;;22.80;59.90;;;;;;4752969;55;21083;-35
2023/05/10 23:26:45;;;;;;;17.17;15.27;;;22.70;59.80;;;;;;4785593;55;21015;-34
2023/05/10 23:31:50;;;;;;;17.83;15.55;;;22.70;59.80;;;;;;4721127;55;21505;-34
2023/05/10 23:36:50;;;;;;;18.12;15.00;;;22.80;59.90;;;;;;4828998;55;21063;-34
2023/05/10 23:41:51;;;;;;;17.87;15.57;;;22.70;59.80;;;;;;4715451;59;21023;-36
2023/05/10 23:46:52;;;;;;;17.87;15.93;;;22.70;59.80;;;;;;4792870;55;21008;-36
2023/05/10 23:51:53;;;;;;;16.90;14.77;;;22.70;59.80;;;;;;4715394;59;21036;-31
2023/05/10 23:56:54;;;;;;;17.00;14.60;;;22.80;59.80;;;;;;4737177;55;21490;-34
